sensor_id;sensor_type;location;lat;lon;timestamp;P1;durP1;ratioP1;P2;durP2;ratioP2
38425;SDS011;24210;51.460;6.148;2022-07-26T00:01:08;4.10;;;1.10;;
38425;SDS011;24210;51.460;6.148;2022-07-26T00:03:33;8.00;;;1.10;;
38425;SDS011;24210;51.460;6.148;2022-07-26T00:05:58;2.13;;;0.70;;
38425;SDS011;24210;51.460;6.148;2022-07-26T00:08:23;4.33;;;0.83;;
38425;SDS011;24210;51.460;6.148;2022-07-26T00:10:49;5.20;;;1.97;;
38425;SDS011;24210;51.460;6.148;2022-07-26T00:13:15;2.60;;;0.90;;
38425;SDS011;24210;51.460;6.148;2022-07-26T00:15:41;2.83;;;0.70;;
38425;SDS011;24210;51.460;6.148;2022-07-26T00:18:06;4.27;;;0.90;;
38425;SDS011;24210;51.460;6.148;2022-07-26T00:20:32;5.20;;;0.97;;
38425;SDS011;24210;51.460;6.148;2022-07-26T00:22:57;4.10;;;1.17;;
38425;SDS011;24210;51.460;6.148;2022-07-26T00:25:22;4.23;;;0.70;;
38425;SDS011;24210;51.460;6.148;2022-07-26T00:27:47;4.20;;;1.37;;
38425;SDS011;24210;51.460;6.148;2022-07-26T00:30:13;6.03;;;1.23;;
38425;SDS011;24210;51.460;6.148;2022-07-26T00:32:39;5.00;;;1.03;;
38425;SDS011;24210;51.460;6.148;2022-07-26T00:35:04;8.80;;;1.60;;
38425;SDS011;24210;51.460;6.148;2022-07-26T00:37:30;6.23;;;1.80;;
38425;SDS011;24210;51.460;6.148;2022-07-26T00:39:55;4.30;;;1.27;;
38425;SDS011;24210;51.460;6.148;2022-07-26T00:42:20;3.37;;;2.27;;
38425;SDS011;24210;51.460;6.148;2022-07-26T00:44:46;6.37;;;2.10;;
38425;SDS011;24210;51.460;6.148;2022-07-26T00:47:11;3.47;;;2.07;;
38425;SDS011;24210;51.460;6.148;2022-07-26T00:49:36;3.83;;;1.50;;
38425;SDS011;24210;51.460;6.148;2022-07-26T00:52:03;5.10;;;1.63;;
38425;SDS011;24210;51.460;6.148;2022-07-26T00:54:29;4.93;;;2.28;;
38425;SDS011;24210;51.460;6.148;2022-07-26T00:56:54;9.17;;;2.20;;
38425;SDS011;24210;51.460;6.148;2022-07-26T00:59:19;6.93;;;2.53;;
38425;SDS011;24210;51.460;6.148;2022-07-26T01:01:44;6.50;;;1.97;;
38425;SDS011;24210;51.460;6.148;2022-07-26T01:04:10;14.70;;;3.97;;
38425;SDS011;24210;51.460;6.148;2022-07-26T01:06:35;5.80;;;2.10;;
38425;SDS011;24210;51.460;6.148;2022-07-26T01:09:00;6.90;;;1.80;;
38425;SDS011;24210;51.460;6.148;2022-07-26T01:13:52;5.70;;;2.50;;
38425;SDS011;24210;51.460;6.148;2022-07-26T01:16:17;6.00;;;2.80;;
38425;SDS011;24210;51.460;6.148;2022-07-26T01:18:42;5.00;;;1.90;;
38425;SDS011;24210;51.460;6.148;2022-07-26T01:21:08;6.63;;;3.27;;
38425;SDS011;24210;51.460;6.148;2022-07-26T01:23:34;15.68;;;2.97;;
38425;SDS011;24210;51.460;6.148;2022-07-26T01:26:00;4.35;;;2.13;;
38425;SDS011;24210;51.460;6.148;2022-07-26T01:28:25;4.00;;;1.43;;
38425;SDS011;24210;51.460;6.148;2022-07-26T01:30:50;4.60;;;2.07;;
38425;SDS011;24210;51.460;6.148;2022-07-26T01:33:16;5.83;;;2.60;;
38425;SDS011;24210;51.460;6.148;2022-07-26T01:35:41;9.37;;;2.17;;
38425;SDS011;24210;51.460;6.148;2022-07-26T01:38:06;3.47;;;1.60;;
38425;SDS011;24210;51.460;6.148;2022-07-26T01:40:31;7.17;;;1.53;;
38425;SDS011;24210;51.460;6.148;2022-07-26T01:42:56;5.90;;;1.70;;
38425;SDS011;24210;51.460;6.148;2022-07-26T01:45:22;5.40;;;1.43;;
38425;SDS011;24210;51.460;6.148;2022-07-26T01:47:47;8.33;;;2.03;;
38425;SDS011;24210;51.460;6.148;2022-07-26T01:50:14;5.65;;;1.75;;
38425;SDS011;24210;51.460;6.148;2022-07-26T01:52:39;4.45;;;1.48;;
38425;SDS011;24210;51.460;6.148;2022-07-26T01:55:05;4.57;;;1.33;;
38425;SDS011;24210;51.460;6.148;2022-07-26T01:57:30;5.30;;;2.47;;
38425;SDS011;24210;51.460;6.148;2022-07-26T01:59:55;3.57;;;1.50;;
38425;SDS011;24210;51.460;6.148;2022-07-26T02:02:20;3.40;;;1.30;;
38425;SDS011;24210;51.460;6.148;2022-07-26T02:04:45;6.20;;;1.33;;
38425;SDS011;24210;51.460;6.148;2022-07-26T02:07:23;9.10;;;1.25;;
38425;SDS011;24210;51.460;6.148;2022-07-26T02:09:48;7.17;;;1.60;;
38425;SDS011;24210;51.460;6.148;2022-07-26T02:12:14;8.63;;;0.97;;
38425;SDS011;24210;51.460;6.148;2022-07-26T02:14:39;6.03;;;1.20;;
38425;SDS011;24210;51.460;6.148;2022-07-26T02:17:04;6.93;;;1.53;;
38425;SDS011;24210;51.460;6.148;2022-07-26T02:19:30;4.97;;;1.07;;
38425;SDS011;24210;51.460;6.148;2022-07-26T02:21:55;4.33;;;1.20;;
38425;SDS011;24210;51.460;6.148;2022-07-26T02:24:20;6.60;;;1.20;;
38425;SDS011;24210;51.460;6.148;2022-07-26T02:26:45;6.97;;;1.37;;
38425;SDS011;24210;51.460;6.148;2022-07-26T02:29:11;4.37;;;0.93;;
38425;SDS011;24210;51.460;6.148;2022-07-26T02:31:36;7.50;;;1.67;;
38425;SDS011;24210;51.460;6.148;2022-07-26T02:34:01;5.53;;;1.00;;
38425;SDS011;24210;51.460;6.148;2022-07-26T02:36:26;7.23;;;2.20;;
38425;SDS011;24210;51.460;6.148;2022-07-26T02:38:52;13.83;;;3.40;;
38425;SDS011;24210;51.460;6.148;2022-07-26T02:41:17;6.70;;;1.33;;
38425;SDS011;24210;51.460;6.148;2022-07-26T02:43:42;5.27;;;0.90;;
38425;SDS011;24210;51.460;6.148;2022-07-26T02:46:07;10.47;;;1.43;;
38425;SDS011;24210;51.460;6.148;2022-07-26T02:48:33;7.90;;;2.13;;
38425;SDS011;24210;51.460;6.148;2022-07-26T02:50:58;9.93;;;1.70;;
38425;SDS011;24210;51.460;6.148;2022-07-26T02:53:23;5.77;;;1.80;;
38425;SDS011;24210;51.460;6.148;2022-07-26T02:55:48;6.07;;;1.40;;
38425;SDS011;24210;51.460;6.148;2022-07-26T02:58:14;6.87;;;1.10;;
38425;SDS011;24210;51.460;6.148;2022-07-26T03:00:39;6.37;;;2.03;;
38425;SDS011;24210;51.460;6.148;2022-07-26T03:03:04;5.77;;;1.33;;
38425;SDS011;24210;51.460;6.148;2022-07-26T03:05:29;6.03;;;1.43;;
38425;SDS011;24210;51.460;6.148;2022-07-26T03:07:55;9.53;;;2.00;;
38425;SDS011;24210;51.460;6.148;2022-07-26T03:10:20;11.83;;;2.60;;
38425;SDS011;24210;51.460;6.148;2022-07-26T03:12:45;5.63;;;1.80;;
38425;SDS011;24210;51.460;6.148;2022-07-26T03:15:10;5.63;;;1.83;;
38425;SDS011;24210;51.460;6.148;2022-07-26T03:17:36;9.05;;;1.90;;
38425;SDS011;24210;51.460;6.148;2022-07-26T03:20:02;14.20;;;2.13;;
38425;SDS011;24210;51.460;6.148;2022-07-26T03:22:28;7.63;;;1.40;;
38425;SDS011;24210;51.460;6.148;2022-07-26T03:24:54;6.47;;;1.47;;
38425;SDS011;24210;51.460;6.148;2022-07-26T03:27:19;5.90;;;1.60;;
38425;SDS011;24210;51.460;6.148;2022-07-26T03:29:44;6.27;;;1.70;;
38425;SDS011;24210;51.460;6.148;2022-07-26T03:32:09;9.77;;;2.50;;
38425;SDS011;24210;51.460;6.148;2022-07-26T03:34:34;6.53;;;2.30;;
38425;SDS011;24210;51.460;6.148;2022-07-26T03:37:00;10.03;;;3.13;;
38425;SDS011;24210;51.460;6.148;2022-07-26T03:39:25;5.03;;;1.70;;
38425;SDS011;24210;51.460;6.148;2022-07-26T03:41:50;7.73;;;1.60;;
38425;SDS011;24210;51.460;6.148;2022-07-26T03:44:15;6.83;;;2.20;;
38425;SDS011;24210;51.460;6.148;2022-07-26T03:46:41;12.23;;;2.57;;
38425;SDS011;24210;51.460;6.148;2022-07-26T03:49:06;7.73;;;1.93;;
38425;SDS011;24210;51.460;6.148;2022-07-26T03:51:31;10.93;;;1.57;;
38425;SDS011;24210;51.460;6.148;2022-07-26T03:53:58;9.48;;;1.83;;
38425;SDS011;24210;51.460;6.148;2022-07-26T03:56:23;6.73;;;1.80;;
38425;SDS011;24210;51.460;6.148;2022-07-26T03:58:58;14.10;;;2.50;;
38425;SDS011;24210;51.460;6.148;2022-07-26T04:01:24;5.32;;;2.60;;
38425;SDS011;24210;51.460;6.148;2022-07-26T04:03:49;8.20;;;1.93;;
38425;SDS011;24210;51.460;6.148;2022-07-26T04:06:14;8.37;;;3.03;;
38425;SDS011;24210;51.460;6.148;2022-07-26T04:08:40;7.50;;;2.77;;
38425;SDS011;24210;51.460;6.148;2022-07-26T04:11:05;11.07;;;2.10;;
38425;SDS011;24210;51.460;6.148;2022-07-26T04:13:31;7.90;;;2.43;;
38425;SDS011;24210;51.460;6.148;2022-07-26T04:15:56;15.67;;;2.70;;
38425;SDS011;24210;51.460;6.148;2022-07-26T04:18:22;8.10;;;1.67;;
38425;SDS011;24210;51.460;6.148;2022-07-26T04:20:48;10.23;;;2.75;;
38425;SDS011;24210;51.460;6.148;2022-07-26T04:23:13;9.33;;;1.93;;
38425;SDS011;24210;51.460;6.148;2022-07-26T04:25:38;11.00;;;1.97;;
38425;SDS011;24210;51.460;6.148;2022-07-26T04:28:04;10.80;;;2.47;;
38425;SDS011;24210;51.460;6.148;2022-07-26T04:30:29;9.23;;;2.47;;
38425;SDS011;24210;51.460;6.148;2022-07-26T04:32:54;6.23;;;2.20;;
38425;SDS011;24210;51.460;6.148;2022-07-26T04:35:19;6.90;;;1.67;;
38425;SDS011;24210;51.460;6.148;2022-07-26T04:37:45;5.90;;;1.83;;
38425;SDS011;24210;51.460;6.148;2022-07-26T04:40:11;5.90;;;1.43;;
38425;SDS011;24210;51.460;6.148;2022-07-26T04:42:36;14.43;;;1.70;;
38425;SDS011;24210;51.460;6.148;2022-07-26T04:45:02;8.07;;;1.93;;
38425;SDS011;24210;51.460;6.148;2022-07-26T04:47:28;12.43;;;2.58;;
38425;SDS011;24210;51.460;6.148;2022-07-26T04:49:53;7.40;;;1.80;;
38425;SDS011;24210;51.460;6.148;2022-07-26T04:52:18;11.83;;;2.33;;
38425;SDS011;24210;51.460;6.148;2022-07-26T04:54:43;7.27;;;2.10;;
38425;SDS011;24210;51.460;6.148;2022-07-26T04:57:09;8.90;;;2.27;;
38425;SDS011;24210;51.460;6.148;2022-07-26T04:59:34;13.53;;;3.30;;
38425;SDS011;24210;51.460;6.148;2022-07-26T05:01:59;11.30;;;2.37;;
38425;SDS011;24210;51.460;6.148;2022-07-26T05:04:24;10.13;;;2.57;;
38425;SDS011;24210;51.460;6.148;2022-07-26T05:06:50;9.53;;;3.27;;
38425;SDS011;24210;51.460;6.148;2022-07-26T05:09:15;10.70;;;2.97;;
38425;SDS011;24210;51.460;6.148;2022-07-26T05:11:40;11.70;;;2.17;;
38425;SDS011;24210;51.460;6.148;2022-07-26T05:14:06;8.53;;;2.60;;
38425;SDS011;24210;51.460;6.148;2022-07-26T05:16:31;10.20;;;2.33;;
38425;SDS011;24210;51.460;6.148;2022-07-26T05:18:56;10.67;;;2.27;;
38425;SDS011;24210;51.460;6.148;2022-07-26T05:21:21;8.20;;;2.60;;
38425;SDS011;24210;51.460;6.148;2022-07-26T05:23:47;9.63;;;3.23;;
38425;SDS011;24210;51.460;6.148;2022-07-26T05:26:12;11.30;;;2.50;;
38425;SDS011;24210;51.460;6.148;2022-07-26T05:28:37;11.97;;;3.13;;
38425;SDS011;24210;51.460;6.148;2022-07-26T05:31:03;10.70;;;2.83;;
38425;SDS011;24210;51.460;6.148;2022-07-26T05:33:28;8.47;;;2.77;;
38425;SDS011;24210;51.460;6.148;2022-07-26T05:35:53;12.50;;;2.77;;
38425;SDS011;24210;51.460;6.148;2022-07-26T05:38:19;8.13;;;2.90;;
38425;SDS011;24210;51.460;6.148;2022-07-26T05:40:44;16.23;;;4.17;;
38425;SDS011;24210;51.460;6.148;2022-07-26T05:43:10;14.73;;;3.50;;
38425;SDS011;24210;51.460;6.148;2022-07-26T05:45:35;13.40;;;2.97;;
38425;SDS011;24210;51.460;6.148;2022-07-26T05:48:00;8.57;;;2.77;;
38425;SDS011;24210;51.460;6.148;2022-07-26T05:50:25;10.43;;;2.43;;
38425;SDS011;24210;51.460;6.148;2022-07-26T05:52:51;12.50;;;4.10;;
38425;SDS011;24210;51.460;6.148;2022-07-26T05:55:16;12.17;;;3.53;;
38425;SDS011;24210;51.460;6.148;2022-07-26T05:57:41;10.20;;;3.90;;
38425;SDS011;24210;51.460;6.148;2022-07-26T06:00:09;15.07;;;4.15;;
38425;SDS011;24210;51.460;6.148;2022-07-26T06:02:34;10.43;;;2.70;;
38425;SDS011;24210;51.460;6.148;2022-07-26T06:05:00;8.97;;;2.60;;
38425;SDS011;24210;51.460;6.148;2022-07-26T06:07:25;12.93;;;3.67;;
38425;SDS011;24210;51.460;6.148;2022-07-26T06:09:50;7.63;;;2.70;;
38425;SDS011;24210;51.460;6.148;2022-07-26T06:12:15;13.23;;;3.00;;
38425;SDS011;24210;51.460;6.148;2022-07-26T06:14:41;9.73;;;3.20;;
38425;SDS011;24210;51.460;6.148;2022-07-26T06:17:06;8.37;;;2.57;;
38425;SDS011;24210;51.460;6.148;2022-07-26T06:19:31;13.00;;;3.30;;
38425;SDS011;24210;51.460;6.148;2022-07-26T06:21:57;6.70;;;3.50;;
38425;SDS011;24210;51.460;6.148;2022-07-26T06:24:22;11.87;;;4.47;;
38425;SDS011;24210;51.460;6.148;2022-07-26T06:26:47;10.67;;;3.50;;
38425;SDS011;24210;51.460;6.148;2022-07-26T06:29:16;10.23;;;2.90;;
38425;SDS011;24210;51.460;6.148;2022-07-26T06:31:41;7.27;;;3.60;;
38425;SDS011;24210;51.460;6.148;2022-07-26T06:34:06;12.10;;;4.17;;
38425;SDS011;24210;51.460;6.148;2022-07-26T06:36:32;9.53;;;2.77;;
38425;SDS011;24210;51.460;6.148;2022-07-26T06:38:57;6.40;;;3.63;;
38425;SDS011;24210;51.460;6.148;2022-07-26T06:41:22;10.20;;;3.40;;
38425;SDS011;24210;51.460;6.148;2022-07-26T06:43:48;13.23;;;3.37;;
38425;SDS011;24210;51.460;6.148;2022-07-26T06:46:13;9.13;;;3.40;;
38425;SDS011;24210;51.460;6.148;2022-07-26T06:48:38;15.90;;;4.23;;
38425;SDS011;24210;51.460;6.148;2022-07-26T06:51:03;6.40;;;2.87;;
38425;SDS011;24210;51.460;6.148;2022-07-26T06:53:29;10.77;;;3.13;;
38425;SDS011;24210;51.460;6.148;2022-07-26T06:55:54;14.60;;;3.80;;
38425;SDS011;24210;51.460;6.148;2022-07-26T06:58:19;14.20;;;5.33;;
38425;SDS011;24210;51.460;6.148;2022-07-26T07:00:44;12.23;;;3.87;;
38425;SDS011;24210;51.460;6.148;2022-07-26T07:03:10;7.87;;;2.80;;
38425;SDS011;24210;51.460;6.148;2022-07-26T07:05:35;9.47;;;4.47;;
38425;SDS011;24210;51.460;6.148;2022-07-26T07:08:00;9.57;;;3.20;;
38425;SDS011;24210;51.460;6.148;2022-07-26T07:10:25;8.20;;;3.00;;
38425;SDS011;24210;51.460;6.148;2022-07-26T07:12:50;7.97;;;2.77;;
38425;SDS011;24210;51.460;6.148;2022-07-26T07:15:16;12.10;;;4.10;;
38425;SDS011;24210;51.460;6.148;2022-07-26T07:17:41;10.90;;;3.77;;
38425;SDS011;24210;51.460;6.148;2022-07-26T07:20:06;5.53;;;2.47;;
38425;SDS011;24210;51.460;6.148;2022-07-26T07:22:32;8.67;;;2.53;;
38425;SDS011;24210;51.460;6.148;2022-07-26T07:24:57;4.27;;;1.50;;
38425;SDS011;24210;51.460;6.148;2022-07-26T07:27:22;3.23;;;2.00;;
38425;SDS011;24210;51.460;6.148;2022-07-26T07:29:48;11.73;;;4.23;;
38425;SDS011;24210;51.460;6.148;2022-07-26T07:32:13;13.57;;;3.77;;
38425;SDS011;24210;51.460;6.148;2022-07-26T07:34:38;6.97;;;2.23;;
38425;SDS011;24210;51.460;6.148;2022-07-26T07:37:04;8.20;;;3.87;;
38425;SDS011;24210;51.460;6.148;2022-07-26T07:39:29;6.10;;;3.30;;
38425;SDS011;24210;51.460;6.148;2022-07-26T07:41:54;6.53;;;3.13;;
38425;SDS011;24210;51.460;6.148;2022-07-26T07:44:20;11.80;;;3.53;;
38425;SDS011;24210;51.460;6.148;2022-07-26T07:46:45;9.90;;;5.10;;
38425;SDS011;24210;51.460;6.148;2022-07-26T07:49:10;3.27;;;2.37;;
38425;SDS011;24210;51.460;6.148;2022-07-26T07:51:35;1.90;;;1.73;;
38425;SDS011;24210;51.460;6.148;2022-07-26T07:54:01;5.20;;;3.83;;
38425;SDS011;24210;51.460;6.148;2022-07-26T07:56:26;16.60;;;5.47;;
38425;SDS011;24210;51.460;6.148;2022-07-26T07:58:51;2.43;;;2.00;;
38425;SDS011;24210;51.460;6.148;2022-07-26T08:01:17;10.13;;;3.13;;
38425;SDS011;24210;51.460;6.148;2022-07-26T08:03:42;4.77;;;2.33;;
38425;SDS011;24210;51.460;6.148;2022-07-26T08:06:07;3.73;;;2.23;;
38425;SDS011;24210;51.460;6.148;2022-07-26T08:08:33;4.47;;;1.63;;
38425;SDS011;24210;51.460;6.148;2022-07-26T08:10:58;7.07;;;1.90;;
38425;SDS011;24210;51.460;6.148;2022-07-26T08:13:23;3.23;;;1.40;;
38425;SDS011;24210;51.460;6.148;2022-07-26T08:15:49;2.77;;;1.20;;
38425;SDS011;24210;51.460;6.148;2022-07-26T08:18:15;4.07;;;1.40;;
38425;SDS011;24210;51.460;6.148;2022-07-26T08:20:40;9.67;;;2.03;;
38425;SDS011;24210;51.460;6.148;2022-07-26T08:23:05;2.17;;;1.07;;
38425;SDS011;24210;51.460;6.148;2022-07-26T08:25:30;1.10;;;0.57;;
38425;SDS011;24210;51.460;6.148;2022-07-26T08:27:56;1.70;;;1.00;;
38425;SDS011;24210;51.460;6.148;2022-07-26T08:30:21;4.17;;;1.23;;
38425;SDS011;24210;51.460;6.148;2022-07-26T08:32:46;1.87;;;1.00;;
38425;SDS011;24210;51.460;6.148;2022-07-26T08:35:11;3.73;;;1.43;;
38425;SDS011;24210;51.460;6.148;2022-07-26T08:37:37;5.33;;;2.30;;
38425;SDS011;24210;51.460;6.148;2022-07-26T08:40:02;5.57;;;1.67;;
38425;SDS011;24210;51.460;6.148;2022-07-26T08:42:28;1.97;;;1.27;;
38425;SDS011;24210;51.460;6.148;2022-07-26T08:44:53;0.63;;;0.57;;
38425;SDS011;24210;51.460;6.148;2022-07-26T08:47:19;4.60;;;1.20;;
38425;SDS011;24210;51.460;6.148;2022-07-26T08:49:44;3.97;;;1.20;;
38425;SDS011;24210;51.460;6.148;2022-07-26T08:52:10;1.17;;;1.13;;
38425;SDS011;24210;51.460;6.148;2022-07-26T08:54:36;0.98;;;0.70;;
38425;SDS011;24210;51.460;6.148;2022-07-26T08:57:01;5.20;;;1.23;;
38425;SDS011;24210;51.460;6.148;2022-07-26T08:59:26;1.60;;;0.90;;
38425;SDS011;24210;51.460;6.148;2022-07-26T09:01:52;7.40;;;1.30;;
38425;SDS011;24210;51.460;6.148;2022-07-26T09:04:22;2.28;;;1.02;;
38425;SDS011;24210;51.460;6.148;2022-07-26T09:06:55;4.45;;;1.65;;
38425;SDS011;24210;51.460;6.148;2022-07-26T09:09:20;5.90;;;1.83;;
38425;SDS011;24210;51.460;6.148;2022-07-26T09:11:46;3.37;;;1.10;;
38425;SDS011;24210;51.460;6.148;2022-07-26T09:14:11;4.57;;;1.20;;
38425;SDS011;24210;51.460;6.148;2022-07-26T09:16:36;3.90;;;1.40;;
38425;SDS011;24210;51.460;6.148;2022-07-26T09:21:41;5.50;;;1.02;;
38425;SDS011;24210;51.460;6.148;2022-07-26T09:24:07;1.00;;;0.13;;
38425;SDS011;24210;51.460;6.148;2022-07-26T09:26:33;0.35;;;0.20;;
38425;SDS011;24210;51.460;6.148;2022-07-26T09:29:06;0.90;;;0.43;;
38425;SDS011;24210;51.460;6.148;2022-07-26T09:31:32;2.80;;;0.30;;
38425;SDS011;24210;51.460;6.148;2022-07-26T09:33:57;0.40;;;0.20;;
38425;SDS011;24210;51.460;6.148;2022-07-26T09:36:24;0.43;;;0.20;;
38425;SDS011;24210;51.460;6.148;2022-07-26T09:38:54;0.30;;;0.20;;
38425;SDS011;24210;51.460;6.148;2022-07-26T09:41:30;0.88;;;0.20;;
38425;SDS011;24210;51.460;6.148;2022-07-26T09:43:57;2.15;;;0.63;;
38425;SDS011;24210;51.460;6.148;2022-07-26T09:46:24;0.40;;;0.20;;
38425;SDS011;24210;51.460;6.148;2022-07-26T09:48:50;2.88;;;0.50;;
38425;SDS011;24210;51.460;6.148;2022-07-26T09:51:16;3.15;;;0.70;;
38425;SDS011;24210;51.460;6.148;2022-07-26T09:53:58;2.00;;;0.68;;
38425;SDS011;24210;51.460;6.148;2022-07-26T09:56:23;2.53;;;1.47;;
38425;SDS011;24210;51.460;6.148;2022-07-26T09:58:48;0.80;;;0.20;;
38425;SDS011;24210;51.460;6.148;2022-07-26T10:03:40;1.13;;;0.30;;
38425;SDS011;24210;51.460;6.148;2022-07-26T10:06:06;1.47;;;1.03;;
38425;SDS011;24210;51.460;6.148;2022-07-26T10:08:31;0.47;;;0.20;;
38425;SDS011;24210;51.460;6.148;2022-07-26T10:11:03;1.07;;;0.20;;
38425;SDS011;24210;51.460;6.148;2022-07-26T10:13:29;0.20;;;0.10;;
38425;SDS011;24210;51.460;6.148;2022-07-26T10:15:54;2.23;;;0.20;;
38425;SDS011;24210;51.460;6.148;2022-07-26T10:21:33;1.20;;;0.20;;
38425;SDS011;24210;51.460;6.148;2022-07-26T10:24:00;1.00;;;0.10;;
38425;SDS011;24210;51.460;6.148;2022-07-26T10:29:29;0.82;;;0.10;;
38425;SDS011;24210;51.460;6.148;2022-07-26T10:34:32;1.00;;;0.30;;
38425;SDS011;24210;51.460;6.148;2022-07-26T10:36:59;1.20;;;0.28;;
38425;SDS011;24210;51.460;6.148;2022-07-26T10:39:24;0.57;;;0.30;;
38425;SDS011;24210;51.460;6.148;2022-07-26T10:41:56;0.87;;;0.27;;
38425;SDS011;24210;51.460;6.148;2022-07-26T10:44:25;1.25;;;0.60;;
38425;SDS011;24210;51.460;6.148;2022-07-26T10:46:55;0.68;;;0.30;;
38425;SDS011;24210;51.460;6.148;2022-07-26T10:49:26;2.00;;;0.22;;
38425;SDS011;24210;51.460;6.148;2022-07-26T10:51:55;2.58;;;0.15;;
38425;SDS011;24210;51.460;6.148;2022-07-26T10:54:28;0.75;;;0.40;;
38425;SDS011;24210;51.460;6.148;2022-07-26T10:56:53;0.30;;;0.20;;
38425;SDS011;24210;51.460;6.148;2022-07-26T10:59:29;2.07;;;0.33;;
38425;SDS011;24210;51.460;6.148;2022-07-26T11:01:54;1.70;;;0.32;;
38425;SDS011;24210;51.460;6.148;2022-07-26T11:04:20;1.40;;;0.70;;
38425;SDS011;24210;51.460;6.148;2022-07-26T11:06:46;0.55;;;0.22;;
38425;SDS011;24210;51.460;6.148;2022-07-26T11:09:11;1.77;;;0.20;;
38425;SDS011;24210;51.460;6.148;2022-07-26T11:11:36;0.97;;;0.37;;
38425;SDS011;24210;51.460;6.148;2022-07-26T11:14:06;1.15;;;0.32;;
38425;SDS011;24210;51.460;6.148;2022-07-26T11:16:44;1.25;;;0.25;;
38425;SDS011;24210;51.460;6.148;2022-07-26T11:21:38;1.65;;;0.30;;
38425;SDS011;24210;51.460;6.148;2022-07-26T11:24:05;1.20;;;0.30;;
38425;SDS011;24210;51.460;6.148;2022-07-26T11:26:30;3.47;;;0.43;;
38425;SDS011;24210;51.460;6.148;2022-07-26T11:29:04;1.85;;;0.40;;
38425;SDS011;24210;51.460;6.148;2022-07-26T11:31:39;1.53;;;0.33;;
38425;SDS011;24210;51.460;6.148;2022-07-26T11:34:05;0.52;;;0.20;;
38425;SDS011;24210;51.460;6.148;2022-07-26T11:39:03;2.28;;;0.52;;
38425;SDS011;24210;51.460;6.148;2022-07-26T11:43:54;0.73;;;0.37;;
38425;SDS011;24210;51.460;6.148;2022-07-26T11:46:20;1.60;;;0.28;;
38425;SDS011;24210;51.460;6.148;2022-07-26T11:48:50;1.80;;;0.63;;
38425;SDS011;24210;51.460;6.148;2022-07-26T11:51:17;0.88;;;0.38;;
38425;SDS011;24210;51.460;6.148;2022-07-26T11:53:43;1.92;;;0.35;;
38425;SDS011;24210;51.460;6.148;2022-07-26T11:56:13;1.60;;;0.68;;
38425;SDS011;24210;51.460;6.148;2022-07-26T11:58:39;1.95;;;0.70;;
38425;SDS011;24210;51.460;6.148;2022-07-26T12:01:05;1.05;;;0.28;;
38425;SDS011;24210;51.460;6.148;2022-07-26T12:03:35;0.88;;;0.40;;
38425;SDS011;24210;51.460;6.148;2022-07-26T12:06:04;1.55;;;0.20;;
38425;SDS011;24210;51.460;6.148;2022-07-26T12:11:05;1.83;;;0.40;;
38425;SDS011;24210;51.460;6.148;2022-07-26T12:13:30;3.13;;;0.70;;
38425;SDS011;24210;51.460;6.148;2022-07-26T12:15:55;1.17;;;0.33;;
38425;SDS011;24210;51.460;6.148;2022-07-26T12:18:21;1.57;;;0.60;;
38425;SDS011;24210;51.460;6.148;2022-07-26T12:23:12;1.77;;;0.28;;
38425;SDS011;24210;51.460;6.148;2022-07-26T12:25:37;3.87;;;0.37;;
38425;SDS011;24210;51.460;6.148;2022-07-26T12:28:03;2.90;;;0.53;;
38425;SDS011;24210;51.460;6.148;2022-07-26T12:30:34;13.48;;;3.40;;
38425;SDS011;24210;51.460;6.148;2022-07-26T12:33:00;4.45;;;1.20;;
38425;SDS011;24210;51.460;6.148;2022-07-26T12:35:32;2.85;;;1.00;;
38425;SDS011;24210;51.460;6.148;2022-07-26T12:37:59;3.75;;;0.80;;
38425;SDS011;24210;51.460;6.148;2022-07-26T12:40:28;4.43;;;1.23;;
38425;SDS011;24210;51.460;6.148;2022-07-26T12:42:55;1.98;;;0.57;;
38425;SDS011;24210;51.460;6.148;2022-07-26T12:45:24;3.65;;;0.20;;
38425;SDS011;24210;51.460;6.148;2022-07-26T12:47:50;3.45;;;0.45;;
38425;SDS011;24210;51.460;6.148;2022-07-26T12:50:16;4.05;;;1.17;;
38425;SDS011;24210;51.460;6.148;2022-07-26T12:52:42;1.00;;;0.20;;
38425;SDS011;24210;51.460;6.148;2022-07-26T12:55:08;1.38;;;0.20;;
38425;SDS011;24210;51.460;6.148;2022-07-26T12:57:35;1.50;;;0.32;;
38425;SDS011;24210;51.460;6.148;2022-07-26T13:00:00;0.60;;;0.20;;
38425;SDS011;24210;51.460;6.148;2022-07-26T13:02:26;0.77;;;0.20;;
38425;SDS011;24210;51.460;6.148;2022-07-26T13:04:51;1.87;;;0.50;;
38425;SDS011;24210;51.460;6.148;2022-07-26T13:07:17;0.50;;;0.20;;
38425;SDS011;24210;51.460;6.148;2022-07-26T13:09:43;1.92;;;0.55;;
38425;SDS011;24210;51.460;6.148;2022-07-26T13:12:08;1.13;;;0.20;;
38425;SDS011;24210;51.460;6.148;2022-07-26T13:14:35;1.55;;;0.28;;
38425;SDS011;24210;51.460;6.148;2022-07-26T13:17:00;1.27;;;0.10;;
38425;SDS011;24210;51.460;6.148;2022-07-26T13:19:26;0.60;;;0.13;;
38425;SDS011;24210;51.460;6.148;2022-07-26T13:21:51;1.58;;;0.68;;
38425;SDS011;24210;51.460;6.148;2022-07-26T13:24:17;0.57;;;0.30;;
38425;SDS011;24210;51.460;6.148;2022-07-26T13:26:42;2.73;;;0.20;;
38425;SDS011;24210;51.460;6.148;2022-07-26T13:29:07;0.73;;;0.00;;
38425;SDS011;24210;51.460;6.148;2022-07-26T13:31:32;1.67;;;0.30;;
38425;SDS011;24210;51.460;6.148;2022-07-26T13:33:58;0.93;;;0.13;;
38425;SDS011;24210;51.460;6.148;2022-07-26T13:36:24;0.13;;;0.08;;
38425;SDS011;24210;51.460;6.148;2022-07-26T13:38:49;4.47;;;0.97;;
38425;SDS011;24210;51.460;6.148;2022-07-26T13:41:14;1.90;;;0.63;;
38425;SDS011;24210;51.460;6.148;2022-07-26T13:43:40;1.13;;;0.67;;
38425;SDS011;24210;51.460;6.148;2022-07-26T13:46:05;0.83;;;0.10;;
38425;SDS011;24210;51.460;6.148;2022-07-26T13:48:30;4.30;;;0.40;;
38425;SDS011;24210;51.460;6.148;2022-07-26T13:50:55;4.90;;;0.50;;
38425;SDS011;24210;51.460;6.148;2022-07-26T13:53:21;3.10;;;0.30;;
38425;SDS011;24210;51.460;6.148;2022-07-26T13:55:47;3.40;;;0.60;;
38425;SDS011;24210;51.460;6.148;2022-07-26T13:58:12;0.90;;;0.33;;
38425;SDS011;24210;51.460;6.148;2022-07-26T14:00:38;2.10;;;0.30;;
38425;SDS011;24210;51.460;6.148;2022-07-26T14:03:04;2.05;;;0.30;;
38425;SDS011;24210;51.460;6.148;2022-07-26T14:05:29;1.33;;;0.23;;
38425;SDS011;24210;51.460;6.148;2022-07-26T14:07:55;4.07;;;0.50;;
38425;SDS011;24210;51.460;6.148;2022-07-26T14:10:20;3.27;;;0.43;;
38425;SDS011;24210;51.460;6.148;2022-07-26T14:12:46;1.70;;;0.50;;
38425;SDS011;24210;51.460;6.148;2022-07-26T14:15:11;1.67;;;0.40;;
38425;SDS011;24210;51.460;6.148;2022-07-26T14:17:37;1.20;;;0.20;;
38425;SDS011;24210;51.460;6.148;2022-07-26T14:20:02;1.27;;;0.50;;
38425;SDS011;24210;51.460;6.148;2022-07-26T14:22:28;1.10;;;0.77;;
38425;SDS011;24210;51.460;6.148;2022-07-26T14:24:53;3.90;;;0.37;;
38425;SDS011;24210;51.460;6.148;2022-07-26T14:27:19;2.20;;;0.57;;
38425;SDS011;24210;51.460;6.148;2022-07-26T14:29:44;1.93;;;0.50;;
38425;SDS011;24210;51.460;6.148;2022-07-26T14:32:10;2.20;;;0.90;;
38425;SDS011;24210;51.460;6.148;2022-07-26T14:34:36;2.22;;;0.85;;
38425;SDS011;24210;51.460;6.148;2022-07-26T14:37:01;2.00;;;0.53;;
38425;SDS011;24210;51.460;6.148;2022-07-26T14:39:27;5.23;;;1.40;;
38425;SDS011;24210;51.460;6.148;2022-07-26T14:41:52;4.70;;;0.87;;
38425;SDS011;24210;51.460;6.148;2022-07-26T14:44:17;4.70;;;1.67;;
38425;SDS011;24210;51.460;6.148;2022-07-26T14:46:42;4.03;;;0.90;;
38425;SDS011;24210;51.460;6.148;2022-07-26T14:49:09;3.25;;;1.10;;
38425;SDS011;24210;51.460;6.148;2022-07-26T14:51:34;1.83;;;0.87;;
38425;SDS011;24210;51.460;6.148;2022-07-26T14:54:00;3.13;;;1.10;;
38425;SDS011;24210;51.460;6.148;2022-07-26T14:56:25;2.70;;;1.17;;
38425;SDS011;24210;51.460;6.148;2022-07-26T14:58:50;1.73;;;0.80;;
38425;SDS011;24210;51.460;6.148;2022-07-26T15:01:15;3.50;;;0.80;;
38425;SDS011;24210;51.460;6.148;2022-07-26T15:03:41;0.80;;;0.40;;
38425;SDS011;24210;51.460;6.148;2022-07-26T15:06:06;1.47;;;0.77;;